sensor_id;sensor_type;location;lat;lon;timestamp;temperature;humidity
36292;DHT22;22327;51.208;6.418;2024-03-23T00:55:22;10.70;99.90
36292;DHT22;22327;51.208;6.418;2024-03-23T00:58:23;10.70;99.90
36292;DHT22;22327;51.208;6.418;2024-03-23T01:01:23;10.60;99.90
36292;DHT22;22327;51.208;6.418;2024-03-23T01:04:24;10.70;99.90
36292;DHT22;22327;51.208;6.418;2024-03-23T01:07:25;10.70;99.90
36292;DHT22;22327;51.208;6.418;2024-03-23T01:10:25;10.60;99.90
36292;DHT22;22327;51.208;6.418;2024-03-23T01:13:26;10.60;99.90
36292;DHT22;22327;51.208;6.418;2024-03-23T01:16:27;10.50;99.90
36292;DHT22;22327;51.208;6.418;2024-03-23T01:19:27;10.60;99.90
36292;DHT22;22327;51.208;6.418;2024-03-23T01:22:28;10.60;99.90
36292;DHT22;22327;51.208;6.418;2024-03-23T01:25:28;10.60;99.90
36292;DHT22;22327;51.208;6.418;2024-03-23T01:28:29;10.70;99.90
36292;DHT22;22327;51.208;6.418;2024-03-23T01:31:29;10.70;99.90
36292;DHT22;22327;51.208;6.418;2024-03-23T01:34:30;10.60;99.90
36292;DHT22;22327;51.208;6.418;2024-03-23T01:37:30;10.60;99.90
36292;DHT22;22327;51.208;6.418;2024-03-23T01:40:31;10.60;99.90
36292;DHT22;22327;51.208;6.418;2024-03-23T01:43:32;10.70;99.90
36292;DHT22;22327;51.208;6.418;2024-03-23T01:46:33;10.70;99.90
36292;DHT22;22327;51.208;6.418;2024-03-23T01:49:34;10.80;99.90
36292;DHT22;22327;51.208;6.418;2024-03-23T01:52:35;10.90;99.90
36292;DHT22;22327;51.208;6.418;2024-03-23T01:55:35;11.10;99.90
36292;DHT22;22327;51.208;6.418;2024-03-23T01:58:36;11.10;99.90
36292;DHT22;22327;51.208;6.418;2024-03-23T02:01:36;11.20;99.90
36292;DHT22;22327;51.208;6.418;2024-03-23T02:04:37;11.20;99.90
36292;DHT22;22327;51.208;6.418;2024-03-23T02:07:38;11.20;99.90
36292;DHT22;22327;51.208;6.418;2024-03-23T02:10:39;11.30;99.90
36292;DHT22;22327;51.208;6.418;2024-03-23T02:13:40;11.20;99.90
36292;DHT22;22327;51.208;6.418;2024-03-23T02:16:40;11.20;99.90
36292;DHT22;22327;51.208;6.418;2024-03-23T02:19:41;11.20;99.90
36292;DHT22;22327;51.208;6.418;2024-03-23T02:22:42;11.40;99.90
36292;DHT22;22327;51.208;6.418;2024-03-23T02:25:42;11.40;99.90
36292;DHT22;22327;51.208;6.418;2024-03-23T02:28:43;11.40;99.90
36292;DHT22;22327;51.208;6.418;2024-03-23T02:31:44;11.50;99.90
36292;DHT22;22327;51.208;6.418;2024-03-23T02:34:44;11.50;99.90
36292;DHT22;22327;51.208;6.418;2024-03-23T02:37:46;11.50;99.90
36292;DHT22;22327;51.208;6.418;2024-03-23T02:40:49;11.50;99.90
36292;DHT22;22327;51.208;6.418;2024-03-23T02:43:49;11.40;99.90
36292;DHT22;22327;51.208;6.418;2024-03-23T02:46:50;11.40;99.90
36292;DHT22;22327;51.208;6.418;2024-03-23T02:49:51;11.40;99.90
36292;DHT22;22327;51.208;6.418;2024-03-23T02:52:51;11.30;99.90
36292;DHT22;22327;51.208;6.418;2024-03-23T02:55:52;11.20;99.90
36292;DHT22;22327;51.208;6.418;2024-03-23T02:58:52;11.20;99.90
36292;DHT22;22327;51.208;6.418;2024-03-23T03:01:53;11.20;99.90
36292;DHT22;22327;51.208;6.418;2024-03-23T03:04:53;11.20;99.90
36292;DHT22;22327;51.208;6.418;2024-03-23T03:07:54;11.10;99.90
36292;DHT22;22327;51.208;6.418;2024-03-23T03:10:54;11.10;99.90
36292;DHT22;22327;51.208;6.418;2024-03-23T03:13:55;11.10;99.90
36292;DHT22;22327;51.208;6.418;2024-03-23T03:16:55;11.10;99.90
36292;DHT22;22327;51.208;6.418;2024-03-23T03:19:56;11.10;99.90
36292;DHT22;22327;51.208;6.418;2024-03-23T03:22:56;11.10;99.90
36292;DHT22;22327;51.208;6.418;2024-03-23T03:25:57;11.00;99.90
36292;DHT22;22327;51.208;6.418;2024-03-23T03:28:58;11.00;99.90
36292;DHT22;22327;51.208;6.418;2024-03-23T03:31:58;11.00;99.90
36292;DHT22;22327;51.208;6.418;2024-03-23T03:34:59;11.00;99.90
36292;DHT22;22327;51.208;6.418;2024-03-23T03:37:59;11.00;99.90
36292;DHT22;22327;51.208;6.418;2024-03-23T03:41:00;11.00;99.90
36292;DHT22;22327;51.208;6.418;2024-03-23T03:44:00;11.00;99.90
36292;DHT22;22327;51.208;6.418;2024-03-23T03:47:02;10.80;99.90
36292;DHT22;22327;51.208;6.418;2024-03-23T03:50:03;10.60;99.90
36292;DHT22;22327;51.208;6.418;2024-03-23T03:53:03;10.30;99.90
36292;DHT22;22327;51.208;6.418;2024-03-23T03:56:04;10.20;99.90
36292;DHT22;22327;51.208;6.418;2024-03-23T03:59:05;10.10;99.90
36292;DHT22;22327;51.208;6.418;2024-03-23T04:02:05;10.10;99.90
36292;DHT22;22327;51.208;6.418;2024-03-23T04:05:06;10.10;99.90
36292;DHT22;22327;51.208;6.418;2024-03-23T04:08:08;10.00;99.90
36292;DHT22;22327;51.208;6.418;2024-03-23T04:11:09;10.00;99.90
36292;DHT22;22327;51.208;6.418;2024-03-23T04:14:09;9.90;99.90
36292;DHT22;22327;51.208;6.418;2024-03-23T04:17:10;9.80;99.90
36292;DHT22;22327;51.208;6.418;2024-03-23T04:20:10;9.80;99.90
36292;DHT22;22327;51.208;6.418;2024-03-23T04:23:11;9.80;99.90
36292;DHT22;22327;51.208;6.418;2024-03-23T04:26:12;9.80;99.90
36292;DHT22;22327;51.208;6.418;2024-03-23T04:29:12;9.80;99.90
36292;DHT22;22327;51.208;6.418;2024-03-23T04:32:13;9.90;99.90
36292;DHT22;22327;51.208;6.418;2024-03-23T04:35:14;9.80;99.90
36292;DHT22;22327;51.208;6.418;2024-03-23T04:38:14;9.80;99.90
36292;DHT22;22327;51.208;6.418;2024-03-23T04:41:16;9.80;99.90
36292;DHT22;22327;51.208;6.418;2024-03-23T04:44:17;9.80;99.90
36292;DHT22;22327;51.208;6.418;2024-03-23T04:47:17;9.80;99.90
36292;DHT22;22327;51.208;6.418;2024-03-23T04:50:18;10.00;99.90
36292;DHT22;22327;51.208;6.418;2024-03-23T04:53:19;10.00;99.90
36292;DHT22;22327;51.208;6.418;2024-03-23T04:56:20;10.00;99.90
36292;DHT22;22327;51.208;6.418;2024-03-23T04:59:20;10.00;99.90
36292;DHT22;22327;51.208;6.418;2024-03-23T05:02:21;9.90;99.90
36292;DHT22;22327;51.208;6.418;2024-03-23T05:05:21;9.80;99.90
36292;DHT22;22327;51.208;6.418;2024-03-23T05:08:22;9.60;99.90
36292;DHT22;22327;51.208;6.418;2024-03-23T05:11:22;9.60;99.90
36292;DHT22;22327;51.208;6.418;2024-03-23T05:14:23;9.60;99.90
36292;DHT22;22327;51.208;6.418;2024-03-23T05:17:23;9.60;99.90
36292;DHT22;22327;51.208;6.418;2024-03-23T05:20:24;9.60;99.90
36292;DHT22;22327;51.208;6.418;2024-03-23T05:23:30;9.70;99.90
36292;DHT22;22327;51.208;6.418;2024-03-23T05:26:31;9.80;99.90
36292;DHT22;22327;51.208;6.418;2024-03-23T05:29:34;9.70;99.90
36292;DHT22;22327;51.208;6.418;2024-03-23T05:32:34;9.60;99.90
36292;DHT22;22327;51.208;6.418;2024-03-23T05:35:35;9.50;99.90
36292;DHT22;22327;51.208;6.418;2024-03-23T05:38:35;9.50;99.90
36292;DHT22;22327;51.208;6.418;2024-03-23T05:41:36;9.40;99.90
36292;DHT22;22327;51.208;6.418;2024-03-23T05:44:36;9.30;99.90
36292;DHT22;22327;51.208;6.418;2024-03-23T05:47:38;9.20;99.90
36292;DHT22;22327;51.208;6.418;2024-03-23T05:50:38;9.10;99.90
36292;DHT22;22327;51.208;6.418;2024-03-23T05:53:39;9.10;99.90
36292;DHT22;22327;51.208;6.418;2024-03-23T05:56:39;9.10;99.90
36292;DHT22;22327;51.208;6.418;2024-03-23T05:59:40;9.00;99.90
36292;DHT22;22327;51.208;6.418;2024-03-23T06:02:41;8.90;99.90
36292;DHT22;22327;51.208;6.418;2024-03-23T06:05:41;8.90;99.90
36292;DHT22;22327;51.208;6.418;2024-03-23T06:08:43;8.90;99.90
36292;DHT22;22327;51.208;6.418;2024-03-23T06:11:43;9.00;99.90
36292;DHT22;22327;51.208;6.418;2024-03-23T06:14:44;9.00;99.90
36292;DHT22;22327;51.208;6.418;2024-03-23T06:17:44;9.20;99.90
36292;DHT22;22327;51.208;6.418;2024-03-23T06:20:45;9.40;99.90
36292;DHT22;22327;51.208;6.418;2024-03-23T06:23:46;9.60;99.90
36292;DHT22;22327;51.208;6.418;2024-03-23T06:26:53;10.00;99.90
36292;DHT22;22327;51.208;6.418;2024-03-23T06:29:54;10.40;99.90
36292;DHT22;22327;51.208;6.418;2024-03-23T06:32:54;10.90;99.90
36292;DHT22;22327;51.208;6.418;2024-03-23T06:35:55;11.40;99.90
36292;DHT22;22327;51.208;6.418;2024-03-23T06:38:56;12.00;99.90
36292;DHT22;22327;51.208;6.418;2024-03-23T06:41:56;12.60;99.90
36292;DHT22;22327;51.208;6.418;2024-03-23T06:44:57;13.00;99.90
36292;DHT22;22327;51.208;6.418;2024-03-23T06:47:57;13.50;99.90
36292;DHT22;22327;51.208;6.418;2024-03-23T06:50:58;13.80;99.90
36292;DHT22;22327;51.208;6.418;2024-03-23T06:53:59;14.10;99.90
36292;DHT22;22327;51.208;6.418;2024-03-23T06:56:59;14.40;99.90
36292;DHT22;22327;51.208;6.418;2024-03-23T07:00:00;14.70;99.90
36292;DHT22;22327;51.208;6.418;2024-03-23T07:03:00;14.90;99.90
36292;DHT22;22327;51.208;6.418;2024-03-23T07:06:01;15.10;99.90
36292;DHT22;22327;51.208;6.418;2024-03-23T07:09:02;15.20;99.40
36292;DHT22;22327;51.208;6.418;2024-03-23T07:12:02;15.40;98.60
36292;DHT22;22327;51.208;6.418;2024-03-23T07:15:03;15.30;98.80
36292;DHT22;22327;51.208;6.418;2024-03-23T07:18:04;15.20;98.40
36292;DHT22;22327;51.208;6.418;2024-03-23T07:21:05;15.10;99.00
36292;DHT22;22327;51.208;6.418;2024-03-23T07:24:07;14.80;98.50
36292;DHT22;22327;51.208;6.418;2024-03-23T07:27:07;14.60;99.00
36292;DHT22;22327;51.208;6.418;2024-03-23T07:30:10;14.40;99.00
36292;DHT22;22327;51.208;6.418;2024-03-23T07:33:11;14.20;98.70
36292;DHT22;22327;51.208;6.418;2024-03-23T07:36:11;14.10;99.00
36292;DHT22;22327;51.208;6.418;2024-03-23T07:39:12;14.10;99.20
36292;DHT22;22327;51.208;6.418;2024-03-23T07:42:12;14.30;98.80
36292;DHT22;22327;51.208;6.418;2024-03-23T07:45:13;14.20;98.00
36292;DHT22;22327;51.208;6.418;2024-03-23T07:48:14;14.10;98.50
36292;DHT22;22327;51.208;6.418;2024-03-23T07:51:22;14.10;98.30
36292;DHT22;22327;51.208;6.418;2024-03-23T07:54:23;14.20;98.70
36292;DHT22;22327;51.208;6.418;2024-03-23T07:57:23;14.30;97.50
36292;DHT22;22327;51.208;6.418;2024-03-23T08:00:24;14.30;97.00
36292;DHT22;22327;51.208;6.418;2024-03-23T08:03:24;14.20;97.40
36292;DHT22;22327;51.208;6.418;2024-03-23T08:06:25;14.10;96.80
36292;DHT22;22327;51.208;6.418;2024-03-23T08:09:26;13.90;96.80
36292;DHT22;22327;51.208;6.418;2024-03-23T08:12:26;14.10;97.80
36292;DHT22;22327;51.208;6.418;2024-03-23T08:15:27;14.40;97.10
36292;DHT22;22327;51.208;6.418;2024-03-23T08:18:30;14.70;96.40
36292;DHT22;22327;51.208;6.418;2024-03-23T08:21:31;15.10;96.30
36292;DHT22;22327;51.208;6.418;2024-03-23T08:24:32;15.30;95.40
36292;DHT22;22327;51.208;6.418;2024-03-23T08:27:32;15.50;95.00
36292;DHT22;22327;51.208;6.418;2024-03-23T08:30:35;15.80;94.90
36292;DHT22;22327;51.208;6.418;2024-03-23T08:33:36;15.80;94.30
36292;DHT22;22327;51.208;6.418;2024-03-23T08:36:36;16.10;93.70
36292;DHT22;22327;51.208;6.418;2024-03-23T08:39:37;15.80;93.70
36292;DHT22;22327;51.208;6.418;2024-03-23T08:42:37;15.50;93.30
36292;DHT22;22327;51.208;6.418;2024-03-23T08:45:38;15.10;93.70
36292;DHT22;22327;51.208;6.418;2024-03-23T08:48:40;14.70;93.80
36292;DHT22;22327;51.208;6.418;2024-03-23T08:51:43;14.30;94.50
36292;DHT22;22327;51.208;6.418;2024-03-23T08:54:43;14.10;96.00
36292;DHT22;22327;51.208;6.418;2024-03-23T08:57:44;14.10;96.80
36292;DHT22;22327;51.208;6.418;2024-03-23T09:00:44;14.30;96.10
36292;DHT22;22327;51.208;6.418;2024-03-23T09:03:45;14.20;95.50
36292;DHT22;22327;51.208;6.418;2024-03-23T09:06:45;14.60;94.90
36292;DHT22;22327;51.208;6.418;2024-03-23T09:09:46;15.30;94.70
36292;DHT22;22327;51.208;6.418;2024-03-23T09:12:46;15.70;92.60
36292;DHT22;22327;51.208;6.418;2024-03-23T09:15:49;15.70;92.20
36292;DHT22;22327;51.208;6.418;2024-03-23T09:18:50;15.50;92.50
36292;DHT22;22327;51.208;6.418;2024-03-23T09:21:50;16.20;92.10
36292;DHT22;22327;51.208;6.418;2024-03-23T09:24:51;16.30;90.90
36292;DHT22;22327;51.208;6.418;2024-03-23T09:27:52;15.90;90.10
36292;DHT22;22327;51.208;6.418;2024-03-23T09:30:52;16.10;91.40
36292;DHT22;22327;51.208;6.418;2024-03-23T09:33:53;17.00;89.40
36292;DHT22;22327;51.208;6.418;2024-03-23T09:36:54;17.80;84.60
36292;DHT22;22327;51.208;6.418;2024-03-23T09:39:55;17.80;81.20
36292;DHT22;22327;51.208;6.418;2024-03-23T09:42:55;17.50;81.50
36292;DHT22;22327;51.208;6.418;2024-03-23T09:45:56;17.20;79.40
36292;DHT22;22327;51.208;6.418;2024-03-23T09:48:56;16.80;80.70
36292;DHT22;22327;51.208;6.418;2024-03-23T09:51:57;16.50;81.40
36292;DHT22;22327;51.208;6.418;2024-03-23T09:54:58;16.30;85.00
36292;DHT22;22327;51.208;6.418;2024-03-23T09:57:59;16.40;86.60
36292;DHT22;22327;51.208;6.418;2024-03-23T10:01:00;16.50;86.60
36292;DHT22;22327;51.208;6.418;2024-03-23T10:04:00;16.50;81.50
36292;DHT22;22327;51.208;6.418;2024-03-23T10:07:14;16.10;83.00
36292;DHT22;22327;51.208;6.418;2024-03-23T10:10:16;15.80;84.20
36292;DHT22;22327;51.208;6.418;2024-03-23T10:13:29;15.10;82.50
36292;DHT22;22327;51.208;6.418;2024-03-23T10:16:32;14.20;83.90
36292;DHT22;22327;51.208;6.418;2024-03-23T10:19:32;13.70;87.00
36292;DHT22;22327;51.208;6.418;2024-03-23T10:22:37;13.50;87.90
36292;DHT22;22327;51.208;6.418;2024-03-23T10:25:39;13.20;88.60
36292;DHT22;22327;51.208;6.418;2024-03-23T10:28:56;13.00;89.10
36292;DHT22;22327;51.208;6.418;2024-03-23T10:32:10;12.30;89.40
36292;DHT22;22327;51.208;6.418;2024-03-23T10:35:20;11.60;91.70
36292;DHT22;22327;51.208;6.418;2024-03-23T10:38:24;11.20;93.50
36292;DHT22;22327;51.208;6.418;2024-03-23T10:41:27;11.00;95.30
36292;DHT22;22327;51.208;6.418;2024-03-23T10:44:29;11.00;95.80
36292;DHT22;22327;51.208;6.418;2024-03-23T10:47:35;11.00;96.40
36292;DHT22;22327;51.208;6.418;2024-03-23T10:50:39;11.10;96.70
36292;DHT22;22327;51.208;6.418;2024-03-23T10:53:39;11.20;97.20
36292;DHT22;22327;51.208;6.418;2024-03-23T10:56:40;11.50;97.70
36292;DHT22;22327;51.208;6.418;2024-03-23T10:59:41;11.70;97.20
36292;DHT22;22327;51.208;6.418;2024-03-23T11:02:42;11.80;97.10
36292;DHT22;22327;51.208;6.418;2024-03-23T11:05:48;11.80;97.10
36292;DHT22;22327;51.208;6.418;2024-03-23T11:08:49;11.90;97.70
36292;DHT22;22327;51.208;6.418;2024-03-23T11:11:50;12.00;98.10
36292;DHT22;22327;51.208;6.418;2024-03-23T11:15:06;12.00;98.40
36292;DHT22;22327;51.208;6.418;2024-03-23T11:18:11;12.10;98.10
36292;DHT22;22327;51.208;6.418;2024-03-23T11:24:51;12.30;97.90
36292;DHT22;22327;51.208;6.418;2024-03-23T11:27:55;12.40;97.70
36292;DHT22;22327;51.208;6.418;2024-03-23T11:30:57;12.70;95.60
36292;DHT22;22327;51.208;6.418;2024-03-23T11:34:06;12.70;95.50
36292;DHT22;22327;51.208;6.418;2024-03-23T11:37:07;12.10;94.80
36292;DHT22;22327;51.208;6.418;2024-03-23T11:40:21;11.60;96.50
36292;DHT22;22327;51.208;6.418;2024-03-23T11:43:21;11.40;98.30
36292;DHT22;22327;51.208;6.418;2024-03-23T11:46:24;11.40;99.40
36292;DHT22;22327;51.208;6.418;2024-03-23T11:49:28;11.50;99.40
36292;DHT22;22327;51.208;6.418;2024-03-23T11:52:29;11.60;98.80
36292;DHT22;22327;51.208;6.418;2024-03-23T11:55:30;11.70;99.30
36292;DHT22;22327;51.208;6.418;2024-03-23T11:58:31;11.90;99.60
36292;DHT22;22327;51.208;6.418;2024-03-23T12:01:32;11.90;98.40
36292;DHT22;22327;51.208;6.418;2024-03-23T12:04:33;11.90;98.10
36292;DHT22;22327;51.208;6.418;2024-03-23T12:07:36;12.00;98.70
36292;DHT22;22327;51.208;6.418;2024-03-23T12:10:36;11.90;97.30
36292;DHT22;22327;51.208;6.418;2024-03-23T12:13:39;11.70;97.30
36292;DHT22;22327;51.208;6.418;2024-03-23T12:16:42;11.50;97.00
36292;DHT22;22327;51.208;6.418;2024-03-23T12:19:43;11.40;97.30
36292;DHT22;22327;51.208;6.418;2024-03-23T12:22:46;11.40;97.70
36292;DHT22;22327;51.208;6.418;2024-03-23T12:25:49;11.50;97.30
36292;DHT22;22327;51.208;6.418;2024-03-23T12:28:49;11.60;96.70
36292;DHT22;22327;51.208;6.418;2024-03-23T12:31:50;11.80;96.90
36292;DHT22;22327;51.208;6.418;2024-03-23T12:34:50;12.10;95.90
36292;DHT22;22327;51.208;6.418;2024-03-23T12:37:51;12.30;95.60
36292;DHT22;22327;51.208;6.418;2024-03-23T12:40:51;12.40;96.60
36292;DHT22;22327;51.208;6.418;2024-03-23T12:43:52;12.60;95.40
36292;DHT22;22327;51.208;6.418;2024-03-23T12:46:52;12.60;95.00
36292;DHT22;22327;51.208;6.418;2024-03-23T12:49:53;12.60;95.20
36292;DHT22;22327;51.208;6.418;2024-03-23T12:52:53;12.70;94.40
36292;DHT22;22327;51.208;6.418;2024-03-23T12:55:54;12.30;95.40
36292;DHT22;22327;51.208;6.418;2024-03-23T12:58:55;11.50;95.50
36292;DHT22;22327;51.208;6.418;2024-03-23T13:01:57;10.90;97.70
36292;DHT22;22327;51.208;6.418;2024-03-23T13:04:57;10.80;99.60
36292;DHT22;22327;51.208;6.418;2024-03-23T13:07:58;11.00;99.90
36292;DHT22;22327;51.208;6.418;2024-03-23T13:10:59;11.30;98.50
36292;DHT22;22327;51.208;6.418;2024-03-23T13:14:00;11.50;99.10
36292;DHT22;22327;51.208;6.418;2024-03-23T13:17:01;11.60;97.50
36292;DHT22;22327;51.208;6.418;2024-03-23T13:20:02;11.60;97.60
36292;DHT22;22327;51.208;6.418;2024-03-23T13:23:04;11.80;97.90
36292;DHT22;22327;51.208;6.418;2024-03-23T13:26:04;11.80;96.90
36292;DHT22;22327;51.208;6.418;2024-03-23T13:29:05;11.70;97.10
36292;DHT22;22327;51.208;6.418;2024-03-23T13:32:06;11.50;97.40
36292;DHT22;22327;51.208;6.418;2024-03-23T13:35:07;11.50;97.30
36292;DHT22;22327;51.208;6.418;2024-03-23T13:38:07;11.50;97.70
36292;DHT22;22327;51.208;6.418;2024-03-23T13:41:08;11.80;98.30
36292;DHT22;22327;51.208;6.418;2024-03-23T13:44:13;12.10;98.20
36292;DHT22;22327;51.208;6.418;2024-03-23T13:47:14;12.40;97.80
36292;DHT22;22327;51.208;6.418;2024-03-23T13:50:15;12.60;97.40
36292;DHT22;22327;51.208;6.418;2024-03-23T13:53:16;12.80;97.40
36292;DHT22;22327;51.208;6.418;2024-03-23T13:56:17;12.90;96.30
36292;DHT22;22327;51.208;6.418;2024-03-23T13:59:17;12.90;95.50
36292;DHT22;22327;51.208;6.418;2024-03-23T14:02:18;12.80;94.70
36292;DHT22;22327;51.208;6.418;2024-03-23T14:05:18;12.70;94.50
36292;DHT22;22327;51.208;6.418;2024-03-23T14:08:19;12.30;94.20
36292;DHT22;22327;51.208;6.418;2024-03-23T14:11:22;11.80;94.70
36292;DHT22;22327;51.208;6.418;2024-03-23T14:14:22;11.20;96.80
36292;DHT22;22327;51.208;6.418;2024-03-23T14:17:23;10.60;98.60
36292;DHT22;22327;51.208;6.418;2024-03-23T14:20:24;10.10;99.90
36292;DHT22;22327;51.208;6.418;2024-03-23T14:23:28;10.00;99.90
36292;DHT22;22327;51.208;6.418;2024-03-23T14:26:33;10.00;99.90
36292;DHT22;22327;51.208;6.418;2024-03-23T14:29:34;10.20;99.90
36292;DHT22;22327;51.208;6.418;2024-03-23T14:32:34;10.40;99.90
36292;DHT22;22327;51.208;6.418;2024-03-23T14:35:35;10.60;99.90
36292;DHT22;22327;51.208;6.418;2024-03-23T14:38:36;10.70;99.90
36292;DHT22;22327;51.208;6.418;2024-03-23T14:41:36;10.90;99.90
36292;DHT22;22327;51.208;6.418;2024-03-23T14:44:37;11.00;99.90
36292;DHT22;22327;51.208;6.418;2024-03-23T14:47:37;11.10;99.90
36292;DHT22;22327;51.208;6.418;2024-03-23T14:50:38;11.10;99.90
36292;DHT22;22327;51.208;6.418;2024-03-23T14:53:40;11.00;99.90
36292;DHT22;22327;51.208;6.418;2024-03-23T14:56:41;11.00;99.90
36292;DHT22;22327;51.208;6.418;2024-03-23T14:59:42;10.90;99.90
36292;DHT22;22327;51.208;6.418;2024-03-23T15:02:42;10.80;99.90
36292;DHT22;22327;51.208;6.418;2024-03-23T15:05:53;10.80;99.90
36292;DHT22;22327;51.208;6.418;2024-03-23T15:08:54;10.80;99.90
36292;DHT22;22327;51.208;6.418;2024-03-23T15:11:55;10.80;99.90
36292;DHT22;22327;51.208;6.418;2024-03-23T15:14:56;10.90;99.80
36292;DHT22;22327;51.208;6.418;2024-03-23T15:17:56;11.00;99.90
36292;DHT22;22327;51.208;6.418;2024-03-23T15:20:58;11.20;99.90
36292;DHT22;22327;51.208;6.418;2024-03-23T15:24:03;11.30;99.60
36292;DHT22;22327;51.208;6.418;2024-03-23T15:27:03;11.20;99.30
36292;DHT22;22327;51.208;6.418;2024-03-23T15:30:04;11.20;99.40
36292;DHT22;22327;51.208;6.418;2024-03-23T15:33:05;11.30;99.40
36292;DHT22;22327;51.208;6.418;2024-03-23T15:36:06;11.30;98.30
36292;DHT22;22327;51.208;6.418;2024-03-23T15:39:06;11.20;97.80
36292;DHT22;22327;51.208;6.418;2024-03-23T15:42:07;11.10;97.60
36292;DHT22;22327;51.208;6.418;2024-03-23T15:45:08;11.10;97.30
36292;DHT22;22327;51.208;6.418;2024-03-23T15:48:09;11.00;96.30
36292;DHT22;22327;51.208;6.418;2024-03-23T15:51:10;10.90;96.00
36292;DHT22;22327;51.208;6.418;2024-03-23T15:54:10;10.90;96.20
36292;DHT22;22327;51.208;6.418;2024-03-23T15:57:11;10.80;96.10
36292;DHT22;22327;51.208;6.418;2024-03-23T16:00:13;10.70;96.20
36292;DHT22;22327;51.208;6.418;2024-03-23T16:03:13;10.70;96.90
36292;DHT22;22327;51.208;6.418;2024-03-23T16:06:14;10.80;96.60
36292;DHT22;22327;51.208;6.418;2024-03-23T16:09:14;10.90;96.60
36292;DHT22;22327;51.208;6.418;2024-03-23T16:12:15;11.00;96.80
36292;DHT22;22327;51.208;6.418;2024-03-23T16:15:15;11.10;96.70
36292;DHT22;22327;51.208;6.418;2024-03-23T16:18:16;11.30;96.60
36292;DHT22;22327;51.208;6.418;2024-03-23T16:21:16;11.30;96.50
36292;DHT22;22327;51.208;6.418;2024-03-23T16:24:18;11.40;96.50
36292;DHT22;22327;51.208;6.418;2024-03-23T16:27:18;11.50;96.10
36292;DHT22;22327;51.208;6.418;2024-03-23T16:30:19;11.40;95.90
36292;DHT22;22327;51.208;6.418;2024-03-23T16:33:21;11.40;95.60
36292;DHT22;22327;51.208;6.418;2024-03-23T16:36:21;11.30;95.70
36292;DHT22;22327;51.208;6.418;2024-03-23T16:39:22;11.30;95.90
36292;DHT22;22327;51.208;6.418;2024-03-23T16:42:22;11.20;95.80
36292;DHT22;22327;51.208;6.418;2024-03-23T16:45:23;11.20;95.50
36292;DHT22;22327;51.208;6.418;2024-03-23T16:48:24;11.10;95.40
36292;DHT22;22327;51.208;6.418;2024-03-23T16:51:25;11.00;95.50
36292;DHT22;22327;51.208;6.418;2024-03-23T16:54:25;11.00;95.60
36292;DHT22;22327;51.208;6.418;2024-03-23T16:57:26;10.90;95.50
36292;DHT22;22327;51.208;6.418;2024-03-23T17:00:26;10.90;95.20
36292;DHT22;22327;51.208;6.418;2024-03-23T17:03:27;10.90;95.40
36292;DHT22;22327;51.208;6.418;2024-03-23T17:06:27;10.90;93.90
36292;DHT22;22327;51.208;6.418;2024-03-23T17:09:28;10.80;94.00
36292;DHT22;22327;51.208;6.418;2024-03-23T17:12:28;10.80;96.40
36292;DHT22;22327;51.208;6.418;2024-03-23T17:15:29;10.60;97.60
36292;DHT22;22327;51.208;6.418;2024-03-23T17:18:29;10.20;98.80
36292;DHT22;22327;51.208;6.418;2024-03-23T17:21:30;9.80;99.70
36292;DHT22;22327;51.208;6.418;2024-03-23T17:24:30;9.60;99.90
36292;DHT22;22327;51.208;6.418;2024-03-23T17:27:32;9.50;99.90
36292;DHT22;22327;51.208;6.418;2024-03-23T17:30:33;9.40;99.90
36292;DHT22;22327;51.208;6.418;2024-03-23T17:33:33;9.50;99.90
36292;DHT22;22327;51.208;6.418;2024-03-23T17:36:34;9.50;99.90
36292;DHT22;22327;51.208;6.418;2024-03-23T17:39:35;9.40;99.90
36292;DHT22;22327;51.208;6.418;2024-03-23T17:42:36;9.40;99.90
36292;DHT22;22327;51.208;6.418;2024-03-23T17:45:37;9.40;99.90
36292;DHT22;22327;51.208;6.418;2024-03-23T17:48:38;9.20;99.90
36292;DHT22;22327;51.208;6.418;2024-03-23T17:51:39;9.20;99.90
36292;DHT22;22327;51.208;6.418;2024-03-23T17:54:39;9.20;99.90
36292;DHT22;22327;51.208;6.418;2024-03-23T17:57:40;9.10;99.90
36292;DHT22;22327;51.208;6.418;2024-03-23T18:00:40;9.00;99.90
36292;DHT22;22327;51.208;6.418;2024-03-23T18:03:41;8.90;99.90
36292;DHT22;22327;51.208;6.418;2024-03-23T18:06:41;8.90;99.90
36292;DHT22;22327;51.208;6.418;2024-03-23T18:09:42;8.90;99.90
36292;DHT22;22327;51.208;6.418;2024-03-23T18:12:43;8.90;99.90
36292;DHT22;22327;51.208;6.418;2024-03-23T18:15:54;9.00;99.90
36292;DHT22;22327;51.208;6.418;2024-03-23T18:18:55;9.10;99.90
36292;DHT22;22327;51.208;6.418;2024-03-23T18:21:55;9.20;99.90
36292;DHT22;22327;51.208;6.418;2024-03-23T18:24:56;9.20;99.90
36292;DHT22;22327;51.208;6.418;2024-03-23T18:27:57;9.20;99.90
36292;DHT22;22327;51.208;6.418;2024-03-23T18:31:00;9.20;99.90
36292;DHT22;22327;51.208;6.418;2024-03-23T18:34:00;9.20;99.90
36292;DHT22;22327;51.208;6.418;2024-03-23T18:37:01;9.20;99.90
36292;DHT22;22327;51.208;6.418;2024-03-23T18:40:02;9.20;99.90
36292;DHT22;22327;51.208;6.418;2024-03-23T18:43:03;9.10;99.90
36292;DHT22;22327;51.208;6.418;2024-03-23T18:46:04;9.10;99.90
36292;DHT22;22327;51.208;6.418;2024-03-23T18:49:04;9.00;99.90
36292;DHT22;22327;51.208;6.418;2024-03-23T18:52:05;9.00;99.90
36292;DHT22;22327;51.208;6.418;2024-03-23T18:55:05;9.00;99.90
36292;DHT22;22327;51.208;6.418;2024-03-23T18:58:06;8.90;99.90
36292;DHT22;22327;51.208;6.418;2024-03-23T19:01:07;8.80;99.90
36292;DHT22;22327;51.208;6.418;2024-03-23T19:04:08;8.70;99.90
36292;DHT22;22327;51.208;6.418;2024-03-23T19:07:09;8.60;99.90
36292;DHT22;22327;51.208;6.418;2024-03-23T19:10:09;8.50;99.90
36292;DHT22;22327;51.208;6.418;2024-03-23T19:13:10;8.40;99.90
36292;DHT22;22327;51.208;6.418;2024-03-23T19:16:10;8.40;99.90
36292;DHT22;22327;51.208;6.418;2024-03-23T19:19:11;8.40;99.90
36292;DHT22;22327;51.208;6.418;2024-03-23T19:22:11;8.50;99.90
36292;DHT22;22327;51.208;6.418;2024-03-23T19:25:12;8.40;99.90
36292;DHT22;22327;51.208;6.418;2024-03-23T19:28:13;8.30;99.90
36292;DHT22;22327;51.208;6.418;2024-03-23T19:31:14;8.20;99.90
36292;DHT22;22327;51.208;6.418;2024-03-23T19:34:16;8.10;99.90
36292;DHT22;22327;51.208;6.418;2024-03-23T19:37:17;8.10;99.90
36292;DHT22;22327;51.208;6.418;2024-03-23T19:40:18;8.20;99.90
36292;DHT22;22327;51.208;6.418;2024-03-23T19:43:19;8.20;99.90
36292;DHT22;22327;51.208;6.418;2024-03-23T19:46:19;8.20;99.90
36292;DHT22;22327;51.208;6.418;2024-03-23T19:49:20;8.20;99.90
36292;DHT22;22327;51.208;6.418;2024-03-23T19:52:22;8.10;99.90
36292;DHT22;22327;51.208;6.418;2024-03-23T19:55:22;8.00;99.90
36292;DHT22;22327;51.208;6.418;2024-03-23T19:58:23;8.00;99.90
36292;DHT22;22327;51.208;6.418;2024-03-23T20:01:23;8.00;99.90
36292;DHT22;22327;51.208;6.418;2024-03-23T20:04:24;8.10;99.90
36292;DHT22;22327;51.208;6.418;2024-03-23T20:07:25;8.10;99.90